Time,TemperatureF,DewpointF,PressureIn,WindDirection,WindDirectionDegrees,WindSpeedMPH,WindSpeedGustMPH,Humidity,HourlyPrecipIn,Conditions,Clouds,dailyrainin,SoftwareType,DateUTC
2013-02-19 00:01:00,40.0,40.0,29.77,North,0,0.0,7.0,100,0.00,,,0.43,,2013-02-19 08:01:00,
2013-02-19 00:11:00,40.0,40.0,29.77,North,0,0.0,7.0,100,0.00,,,0.43,,2013-02-19 08:11:00,
2013-02-19 00:21:00,40.0,40.0,29.76,ESE,109,0.0,6.0,100,0.03,,,0.45,,2013-02-19 08:21:00,
2013-02-19 00:31:00,40.0,40.0,29.75,North,0,0.0,9.0,100,0.03,,,0.45,,2013-02-19 08:31:00,
2013-02-19 00:41:00,40.0,40.0,29.75,North,0,0.0,9.0,100,0.03,,,0.45,,2013-02-19 08:41:00,
2013-02-19 00:52:00,40.0,40.0,29.75,SSE,165,2.0,8.0,100,0.04,,,0.45,,2013-02-19 08:52:00,
2013-02-19 01:01:00,40.0,40.0,29.74,SSE,148,0.0,7.0,100,0.04,,,0.45,,2013-02-19 09:01:00,
2013-02-19 01:11:00,40.0,40.0,29.74,SSE,148,0.0,7.0,100,0.04,,,0.45,,2013-02-19 09:11:00,
2013-02-19 01:21:00,40.0,40.0,29.73,SE,126,0.0,8.0,100,0.01,,,0.45,,2013-02-19 09:21:00,
2013-02-19 01:31:00,40.0,40.0,29.73,North,0,0.0,3.0,100,0.00,,,0.46,,2013-02-19 09:31:00,
2013-02-19 01:41:00,40.0,40.0,29.73,North,0,0.0,3.0,100,0.00,,,0.46,,2013-02-19 09:41:00,
2013-02-19 01:52:00,40.0,40.0,29.73,North,0,0.0,6.0,100,0.00,,,0.46,,2013-02-19 09:52:00,
2013-02-19 02:01:00,40.0,40.0,29.73,WSW,253,1.0,14.0,100,0.02,,,0.46,,2013-02-19 10:01:00,
2013-02-19 02:11:00,40.0,40.0,29.73,WSW,253,1.0,14.0,100,0.02,,,0.46,,2013-02-19 10:11:00,
2013-02-19 02:21:00,39.0,39.0,29.73,NE,47,1.0,8.0,100,0.07,,,0.46,,2013-02-19 10:21:00,
2013-02-19 02:31:00,39.0,39.0,29.72,North,0,0.0,3.0,100,0.10,,,0.56,,2013-02-19 10:31:00,
2013-02-19 02:41:00,39.0,39.0,29.72,North,0,0.0,3.0,100,0.10,,,0.56,,2013-02-19 10:41:00,
2013-02-19 02:52:00,39.0,39.0,29.72,North,0,0.0,0.0,100,0.10,,,0.56,,2013-02-19 10:52:00,
2013-02-19 03:01:00,39.0,39.0,29.72,North,0,0.0,0.0,100,0.10,,,0.56,,2013-02-19 11:01:00,
2013-02-19 03:11:00,39.0,39.0,29.72,North,0,0.0,0.0,100,0.03,,,0.56,,2013-02-19 11:11:00,
2013-02-19 03:21:00,39.0,39.0,29.72,North,0,0.0,0.0,100,0.03,,,0.56,,2013-02-19 11:21:00,
2013-02-19 03:31:00,39.0,39.0,29.71,North,0,0.0,0.0,100,0.00,,,0.56,,2013-02-19 11:31:00,
2013-02-19 03:41:00,39.0,39.0,29.71,North,0,0.0,0.0,100,0.00,,,0.56,,2013-02-19 11:41:00,
2013-02-19 03:52:00,38.0,38.0,29.71,North,0,0.0,0.0,100,0.00,,,0.56,,2013-02-19 11:52:00,
2013-02-19 04:01:00,38.0,38.0,29.71,North,0,0.0,0.0,100,0.00,,,0.56,,2013-02-19 12:01:00,
2013-02-19 04:12:00,38.0,38.0,29.71,North,0,0.0,0.0,100,0.00,,,0.56,,2013-02-19 12:12:00,
2013-02-19 04:21:00,38.0,38.0,29.71,North,0,0.0,0.0,100,0.00,,,0.56,,2013-02-19 12:21:00,
2013-02-19 04:32:00,38.0,38.0,29.71,North,0,0.0,0.0,100,0.00,,,0.56,,2013-02-19 12:32:00,
2013-02-19 04:41:00,38.0,38.0,29.71,North,0,0.0,0.0,100,0.00,,,0.56,,2013-02-19 12:41:00,
2013-02-19 04:52:00,38.0,38.0,29.71,North,0,0.0,0.0,100,0.00,,,0.56,,2013-02-19 12:52:00,
2013-02-19 05:01:00,38.0,38.0,29.71,North,0,0.0,0.0,100,0.00,,,0.56,,2013-02-19 13:01:00,
2013-02-19 05:11:00,38.0,38.0,29.71,North,0,0.0,0.0,100,0.00,,,0.56,,2013-02-19 13:11:00,
2013-02-19 05:22:00,38.0,38.0,29.71,North,0,0.0,0.0,100,0.00,,,0.56,,2013-02-19 13:22:00,
2013-02-19 05:31:00,38.0,38.0,29.71,North,0,0.0,0.0,100,0.00,,,0.56,,2013-02-19 13:31:00,
2013-02-19 05:41:00,38.0,38.0,29.71,North,0,0.0,0.0,100,0.00,,,0.56,,2013-02-19 13:41:00,
2013-02-19 05:52:00,38.0,38.0,29.71,North,0,0.0,0.0,100,0.00,,,0.56,,2013-02-19 13:52:00,
2013-02-19 06:01:00,38.0,38.0,29.72,North,0,0.0,0.0,100,0.00,,,0.56,,2013-02-19 14:01:00,
2013-02-19 06:11:00,38.0,38.0,29.72,North,0,0.0,0.0,100,0.00,,,0.56,,2013-02-19 14:11:00,
2013-02-19 06:21:00,37.0,37.0,29.72,North,0,0.0,0.0,100,0.00,,,0.56,,2013-02-19 14:21:00,
2013-02-19 06:32:00,38.0,38.0,29.72,North,0,0.0,0.0,100,0.00,,,0.56,,2013-02-19 14:32:00,
2013-02-19 06:41:00,38.0,38.0,29.72,North,0,0.0,0.0,100,0.00,,,0.56,,2013-02-19 14:41:00,
2013-02-19 06:52:00,38.0,38.0,29.72,North,0,0.0,0.0,100,0.00,,,0.56,,2013-02-19 14:52:00,
2013-02-19 07:01:00,38.0,38.0,29.73,North,0,0.0,0.0,100,0.00,,,0.56,,2013-02-19 15:01:00,
2013-02-19 07:11:00,38.0,38.0,29.73,North,0,0.0,0.0,100,0.00,,,0.56,,2013-02-19 15:11:00,
2013-02-19 07:21:00,38.0,38.0,29.73,North,0,0.0,0.0,100,0.00,,,0.56,,2013-02-19 15:21:00,
2013-02-19 07:31:00,38.0,38.0,29.73,North,0,0.0,0.0,100,0.00,,,0.56,,2013-02-19 15:31:00,
2013-02-19 07:41:00,38.0,38.0,29.73,North,0,0.0,0.0,100,0.00,,,0.56,,2013-02-19 15:41:00,
2013-02-19 07:52:00,38.0,38.0,29.74,North,0,0.0,0.0,100,0.00,,,0.56,,2013-02-19 15:52:00,
2013-02-19 08:01:00,38.0,38.0,29.75,North,0,0.0,0.0,100,0.00,,,0.56,,2013-02-19 16:01:00,
2013-02-19 08:11:00,38.0,38.0,29.75,North,0,0.0,0.0,100,0.00,,,0.56,,2013-02-19 16:11:00,
2013-02-19 08:21:00,38.0,38.0,29.75,North,0,0.0,0.0,100,0.00,,,0.56,,2013-02-19 16:21:00,
2013-02-19 08:31:00,39.0,39.0,29.76,North,0,0.0,0.0,100,0.00,,,0.56,,2013-02-19 16:31:00,
2013-02-19 08:41:00,39.0,39.0,29.76,North,0,0.0,0.0,100,0.00,,,0.56,,2013-02-19 16:41:00,
2013-02-19 08:51:00,39.0,39.0,29.77,North,0,0.0,0.0,100,0.00,,,0.56,,2013-02-19 16:51:00,
2013-02-19 09:01:00,39.0,39.0,29.78,North,0,0.0,0.0,100,0.00,,,0.56,,2013-02-19 17:01:00,
2013-02-19 09:11:00,39.0,39.0,29.78,North,0,0.0,0.0,100,0.00,,,0.56,,2013-02-19 17:11:00,
2013-02-19 09:21:00,39.0,39.0,29.78,North,0,0.0,0.0,100,0.00,,,0.56,,2013-02-19 17:21:00,
2013-02-19 09:31:00,40.0,40.0,29.78,North,0,0.0,0.0,100,0.00,,,0.54,,2013-02-19 17:31:00,
2013-02-19 09:41:00,40.0,40.0,29.79,North,0,0.0,0.0,100,0.00,,,0.54,,2013-02-19 17:41:00,
2013-02-19 09:52:00,40.0,40.0,29.79,North,0,0.0,0.0,100,0.00,,,0.54,,2013-02-19 17:52:00,
2013-02-19 10:01:00,40.0,40.0,29.80,North,0,0.0,0.0,100,0.00,,,0.54,,2013-02-19 18:01:00,
2013-02-19 10:11:00,40.0,40.0,29.80,North,0,0.0,0.0,100,0.00,,,0.54,,2013-02-19 18:11:00,
2013-02-19 10:21:00,40.0,40.0,29.80,North,0,0.0,0.0,100,0.00,,,0.54,,2013-02-19 18:21:00,
2013-02-19 10:31:00,40.0,40.0,29.80,North,0,0.0,0.0,100,0.00,,,0.54,,2013-02-19 18:31:00,
2013-02-19 10:41:00,41.0,41.0,29.81,North,0,0.0,0.0,100,0.00,,,0.54,,2013-02-19 18:41:00,
2013-02-19 10:52:00,41.0,41.0,29.81,North,0,0.0,0.0,100,0.00,,,0.54,,2013-02-19 18:52:00,
2013-02-19 11:01:00,41.0,41.0,29.81,North,0,0.0,0.0,100,0.00,,,0.54,,2013-02-19 19:01:00,
2013-02-19 11:11:00,41.0,41.0,29.81,North,0,0.0,0.0,100,0.00,,,0.54,,2013-02-19 19:11:00,
2013-02-19 11:21:00,42.0,42.0,29.82,North,0,0.0,0.0,100,0.00,,,0.54,,2013-02-19 19:21:00,
2013-02-19 11:31:00,42.0,42.0,29.83,North,0,0.0,0.0,100,0.00,,,0.54,,2013-02-19 19:31:00,
2013-02-19 11:41:00,42.0,42.0,29.83,North,0,0.0,0.0,100,0.00,,,0.54,,2013-02-19 19:41:00,
2013-02-19 11:51:00,42.0,42.0,29.83,North,0,0.0,0.0,100,0.00,,,0.54,,2013-02-19 19:51:00,
2013-02-19 12:01:00,43.0,43.0,29.84,North,0,0.0,0.0,100,0.00,,,0.54,,2013-02-19 20:01:00,
2013-02-19 12:11:00,43.0,43.0,29.84,North,0,0.0,0.0,100,0.00,,,0.54,,2013-02-19 20:11:00,
2013-02-19 12:21:00,43.0,43.0,29.84,North,0,0.0,0.0,100,0.00,,,0.54,,2013-02-19 20:21:00,
2013-02-19 12:31:00,43.0,43.0,29.85,West,280,4.0,6.0,99,0.00,,,0.53,,2013-02-19 20:31:00,
2013-02-19 12:41:00,43.0,43.0,29.85,West,280,4.0,6.0,99,0.00,,,0.53,,2013-02-19 20:41:00,
2013-02-19 12:52:00,44.0,44.0,29.85,North,0,0.0,0.0,99,0.00,,,0.53,,2013-02-19 20:52:00,
2013-02-19 13:01:00,45.0,44.0,29.85,NW,319,5.0,10.0,98,0.00,,,0.53,,2013-02-19 21:01:00,
2013-02-19 13:11:00,45.0,44.0,29.85,NW,319,5.0,10.0,98,0.00,,,0.53,,2013-02-19 21:11:00,
2013-02-19 13:21:00,43.0,42.0,29.86,NNE,19,1.0,8.0,98,0.00,,,0.53,,2013-02-19 21:21:00,
2013-02-19 13:31:00,43.0,43.0,29.87,North,0,0.0,9.0,99,0.00,,,0.53,,2013-02-19 21:31:00,
2013-02-19 13:42:00,43.0,43.0,29.87,North,0,0.0,9.0,99,0.00,,,0.53,,2013-02-19 21:42:00,
2013-02-19 13:51:00,44.0,43.0,29.87,NW,323,0.0,8.0,98,0.00,,,0.53,,2013-02-19 21:51:00,
2013-02-19 14:01:00,44.0,43.0,29.88,North,0,0.0,10.0,97,0.00,,,0.53,,2013-02-19 22:01:00,
2013-02-19 14:11:00,44.0,43.0,29.88,North,0,0.0,10.0,97,0.00,,,0.53,,2013-02-19 22:11:00,
2013-02-19 14:21:00,44.0,43.0,29.88,NW,312,0.0,5.0,97,0.00,,,0.53,,2013-02-19 22:21:00,
2013-02-19 14:31:00,45.0,44.0,29.89,North,0,0.0,5.0,97,0.00,,,0.52,,2013-02-19 22:31:00,
2013-02-19 14:41:00,45.0,44.0,29.89,North,0,0.0,5.0,97,0.00,,,0.52,,2013-02-19 22:41:00,
2013-02-19 14:52:00,44.0,43.0,29.90,North,0,0.0,0.0,96,0.00,,,0.52,,2013-02-19 22:52:00,
2013-02-19 15:01:00,45.0,44.0,29.90,North,0,0.0,2.0,96,0.00,,,0.52,,2013-02-19 23:01:00,
2013-02-19 15:11:00,45.0,44.0,29.90,North,0,0.0,2.0,96,0.00,,,0.52,,2013-02-19 23:11:00,
2013-02-19 15:21:00,45.0,44.0,29.91,North,0,0.0,0.0,96,0.00,,,0.52,,2013-02-19 23:21:00,
2013-02-19 15:31:00,45.0,44.0,29.91,North,0,0.0,0.0,96,0.00,,,0.52,,2013-02-19 23:31:00,
2013-02-19 15:41:00,45.0,44.0,29.91,North,0,0.0,0.0,96,0.00,,,0.52,,2013-02-19 23:41:00,
2013-02-19 15:52:00,46.0,45.0,29.91,North,0,0.0,7.0,96,0.00,,,0.52,,2013-02-19 23:52:00,
2013-02-19 16:01:00,45.0,44.0,29.92,NE,43,5.0,8.0,95,0.00,,,0.52,,2013-02-20 00:01:00,
2013-02-19 16:11:00,45.0,44.0,29.92,NE,43,5.0,8.0,95,0.00,,,0.52,,2013-02-20 00:11:00,
2013-02-19 16:21:00,46.0,44.0,29.92,NNE,22,0.0,11.0,94,0.00,,,0.52,,2013-02-20 00:21:00,
2013-02-19 16:31:00,46.0,44.0,29.92,NNE,30,6.0,12.0,93,0.00,,,0.51,,2013-02-20 00:31:00,
2013-02-19 16:41:00,46.0,44.0,29.92,NNE,30,6.0,12.0,93,0.00,,,0.51,,2013-02-20 00:41:00,
2013-02-19 16:52:00,46.0,44.0,29.93,North,8,1.0,8.0,92,0.00,,,0.51,,2013-02-20 00:52:00,
2013-02-19 17:02:00,46.0,44.0,29.93,NE,40,4.0,12.0,92,0.00,,,0.51,,2013-02-20 01:02:00,
2013-02-19 17:11:00,46.0,44.0,29.93,NE,40,4.0,12.0,92,0.00,,,0.51,,2013-02-20 01:11:00,
2013-02-19 17:21:00,45.0,43.0,29.93,NE,53,0.0,12.0,93,0.00,,,0.51,,2013-02-20 01:21:00,
2013-02-19 17:31:00,45.0,43.0,29.94,North,0,3.0,13.0,93,0.00,,,0.51,,2013-02-20 01:31:00,
2013-02-19 17:41:00,45.0,43.0,29.94,North,0,3.0,13.0,93,0.00,,,0.51,,2013-02-20 01:41:00,
2013-02-19 17:52:00,44.0,42.0,29.95,NNE,28,1.0,11.0,93,0.00,,,0.51,,2013-02-20 01:52:00,
2013-02-19 18:01:00,44.0,42.0,29.95,NNW,336,0.0,7.0,94,0.00,,,0.51,,2013-02-20 02:01:00,
2013-02-19 18:11:00,44.0,42.0,29.95,NNW,336,0.0,7.0,94,0.00,,,0.51,,2013-02-20 02:11:00,
2013-02-19 18:21:00,43.0,42.0,29.96,North,0,0.0,7.0,95,0.00,,,0.51,,2013-02-20 02:21:00,
2013-02-19 18:31:00,42.0,41.0,29.97,North,0,0.0,7.0,97,0.00,,,0.45,,2013-02-20 02:31:00,
2013-02-19 18:41:00,42.0,41.0,29.97,North,0,0.0,7.0,97,0.00,,,0.45,,2013-02-20 02:41:00,
2013-02-19 18:52:00,41.0,40.0,29.98,North,0,0.0,0.0,98,0.00,,,0.45,,2013-02-20 02:52:00,
2013-02-19 19:01:00,41.0,41.0,29.99,NE,37,0.0,4.0,99,0.00,,,0.45,,2013-02-20 03:01:00,
2013-02-19 19:11:00,41.0,41.0,29.99,NE,37,0.0,4.0,99,0.00,,,0.45,,2013-02-20 03:11:00,
2013-02-19 19:21:00,41.0,41.0,30.00,North,0,0.0,0.0,99,0.00,,,0.45,,2013-02-20 03:21:00,
2013-02-19 19:31:00,41.0,41.0,30.00,North,0,0.0,0.0,100,0.00,,,0.42,,2013-02-20 03:31:00,
2013-02-19 19:41:00,41.0,41.0,30.00,North,0,0.0,0.0,100,0.00,,,0.42,,2013-02-20 03:41:00,
2013-02-19 19:52:00,41.0,41.0,30.01,North,0,0.0,0.0,100,0.00,,,0.42,,2013-02-20 03:52:00,
2013-02-19 20:01:00,41.0,41.0,30.01,North,0,0.0,0.0,100,0.00,,,0.42,,2013-02-20 04:01:00,
2013-02-19 20:11:00,41.0,41.0,30.01,North,0,0.0,0.0,100,0.00,,,0.42,,2013-02-20 04:11:00,
2013-02-19 20:21:00,41.0,41.0,30.02,North,0,0.0,8.0,100,0.00,,,0.42,,2013-02-20 04:21:00,
2013-02-19 20:31:00,41.0,41.0,30.02,North,0,0.0,8.0,100,0.00,,,0.38,,2013-02-20 04:31:00,
2013-02-19 20:41:00,41.0,41.0,30.02,North,0,0.0,8.0,100,0.00,,,0.38,,2013-02-20 04:41:00,
2013-02-19 20:52:00,41.0,41.0,30.03,North,0,0.0,0.0,100,0.00,,,0.38,,2013-02-20 04:52:00,
2013-02-19 21:01:00,41.0,41.0,30.03,North,0,0.0,0.0,100,0.00,,,0.38,,2013-02-20 05:01:00,
2013-02-19 21:12:00,41.0,41.0,30.03,North,0,0.0,0.0,100,0.00,,,0.38,,2013-02-20 05:12:00,
2013-02-19 21:22:00,41.0,41.0,30.04,North,0,0.0,0.0,100,0.00,,,0.38,,2013-02-20 05:22:00,
2013-02-19 21:31:00,41.0,41.0,30.04,North,0,0.0,0.0,100,0.00,,,0.27,,2013-02-20 05:31:00,
2013-02-19 21:42:00,41.0,41.0,30.04,North,0,0.0,0.0,100,0.00,,,0.27,,2013-02-20 05:42:00,
2013-02-19 21:52:00,41.0,41.0,30.04,North,0,0.0,0.0,100,0.00,,,0.27,,2013-02-20 05:52:00,
2013-02-19 22:01:00,41.0,41.0,30.05,North,0,0.0,0.0,100,0.00,,,0.27,,2013-02-20 06:01:00,
2013-02-19 22:11:00,41.0,41.0,30.05,North,0,0.0,0.0,100,0.00,,,0.27,,2013-02-20 06:11:00,
2013-02-19 22:21:00,41.0,41.0,30.05,North,0,0.0,0.0,100,0.00,,,0.27,,2013-02-20 06:21:00,
2013-02-19 22:31:00,41.0,41.0,30.06,North,0,0.0,0.0,100,0.00,,,0.15,,2013-02-20 06:31:00,
2013-02-19 22:41:00,41.0,41.0,30.06,North,0,0.0,0.0,100,0.00,,,0.15,,2013-02-20 06:41:00,
2013-02-19 22:52:00,40.0,40.0,30.06,North,0,0.0,0.0,100,0.00,,,0.15,,2013-02-20 06:52:00,
2013-02-19 23:01:00,40.0,40.0,30.06,North,0,0.0,0.0,100,0.00,,,0.15,,2013-02-20 07:01:00,
2013-02-19 23:11:00,40.0,40.0,30.06,North,0,0.0,0.0,100,0.00,,,0.15,,2013-02-20 07:11:00,
2013-02-19 23:21:00,40.0,40.0,30.06,North,0,0.0,0.0,100,0.00,,,0.15,,2013-02-20 07:21:00,
2013-02-19 23:31:00,39.0,39.0,30.07,North,0,0.0,0.0,100,0.00,,,0.14,,2013-02-20 07:31:00,
2013-02-19 23:41:00,39.0,39.0,30.07,North,0,0.0,0.0,100,0.00,,,0.14,,2013-02-20 07:41:00,
2013-02-19 23:52:00,39.0,39.0,30.08,North,0,0.0,0.0,100,0.00,,,0.14,,2013-02-20 07:52:00,